Time;durP1;ratioP1;P1;durP2;ratioP2;P2;SDS_P1;SDS_P2;PMS_P1;PMS_P2;Temp;Humidity;BMP_temperature;BMP_pressure;BME280_temperature;BME280_humidity;BME280_pressure;Samples;Min_cycle;Max_cycle;Signal;HPM_P1;HPM_P2
2021/08/21 00:00:42;;;;;;;17.40;9.75;;;14.20;99.90;;;;;;5036547;28;20033;-83
2021/08/21 00:03:08;;;;;;;15.70;8.93;;;14.30;99.90;;;;;;5050760;28;20060;-85
2021/08/21 00:05:34;;;;;;;19.65;9.68;;;14.30;99.90;;;;;;5056664;28;20061;-84
2021/08/21 00:08:01;;;;;;;20.08;10.00;;;14.30;99.90;;;;;;5052146;28;20066;-83
2021/08/21 00:10:28;;;;;;;21.90;9.85;;;14.30;99.90;;;;;;5050840;28;20037;-85
2021/08/21 00:12:55;;;;;;;23.52;10.45;;;14.40;99.90;;;;;;5034057;28;20044;-84
2021/08/21 00:15:21;;;;;;;23.15;11.15;;;14.40;99.90;;;;;;5034043;28;20068;-83
2021/08/21 00:17:48;;;;;;;19.45;11.82;;;14.40;99.90;;;;;;5029817;28;20069;-84
2021/08/21 00:20:14;;;;;;;27.45;13.93;;;14.50;99.90;;;;;;5043740;28;20543;-87
2021/08/21 00:22:40;;;;;;;23.48;13.68;;;14.50;99.90;;;;;;5045809;28;20041;-85
2021/08/21 00:25:08;;;;;;;26.77;14.25;;;14.60;99.90;;;;;;5067212;28;20045;-84
2021/08/21 00:27:34;;;;;;;27.25;14.55;;;14.70;99.90;;;;;;5067547;28;20044;-84
2021/08/21 00:30:00;;;;;;;30.83;15.15;;;14.70;99.90;;;;;;5066917;28;20037;-85
2021/08/21 00:32:26;;;;;;;27.33;13.93;;;14.70;99.90;;;;;;5054316;28;20032;-86
2021/08/21 00:34:52;;;;;;;22.90;12.55;;;14.70;99.90;;;;;;5031691;28;20397;-84
2021/08/21 00:37:18;;;;;;;27.58;14.43;;;14.70;99.90;;;;;;5039705;28;20036;-84
2021/08/21 00:39:43;;;;;;;31.60;17.10;;;14.80;99.90;;;;;;5049575;28;20053;-84
2021/08/21 00:42:10;;;;;;;28.55;14.90;;;14.90;99.90;;;;;;5066291;28;20569;-85
2021/08/21 00:44:37;;;;;;;31.60;16.77;;;14.90;99.90;;;;;;5050394;28;20052;-84
2021/08/21 00:47:15;;;;;;;29.15;16.00;;;15.00;99.90;;;;;;5033284;28;20044;-84
2021/08/21 00:49:44;;;;;;;31.73;16.35;;;15.00;99.90;;;;;;5032488;28;20447;-84
2021/08/21 00:52:18;;;;;;;27.30;14.02;;;15.10;99.90;;;;;;5051580;28;20075;-85
2021/08/21 00:54:44;;;;;;;28.50;14.57;;;15.20;99.90;;;;;;5049899;28;20045;-86
2021/08/21 00:57:14;;;;;;;28.45;15.15;;;15.20;99.90;;;;;;5068645;28;20033;-85
2021/08/21 00:59:41;;;;;;;;;;;15.20;99.90;;;;;;5051516;28;20501;-84
2021/08/21 01:02:09;;;;;;;23.60;12.70;;;15.20;99.90;;;;;;5033110;28;20312;-86
2021/08/21 01:04:37;;;;;;;22.08;13.43;;;15.20;99.90;;;;;;5050765;28;20063;-85
2021/08/21 01:07:15;;;;;;;22.83;12.52;;;15.20;99.90;;;;;;5051220;28;20040;-85
2021/08/21 01:09:43;;;;;;;25.10;13.30;;;15.30;99.90;;;;;;5033256;28;20039;-85
2021/08/21 01:12:12;;;;;;;18.95;11.90;;;15.30;99.90;;;;;;5051510;28;20045;-86
2021/08/21 01:14:38;;;;;;;26.90;15.27;;;15.30;99.90;;;;;;5033080;28;20474;-85
2021/08/21 01:17:05;;;;;;;29.52;14.75;;;15.20;99.90;;;;;;5030603;28;20041;-84
2021/08/21 01:19:42;;;;;;;27.27;15.48;;;15.30;99.90;;;;;;5064760;28;20037;-89
2021/08/21 01:22:11;;;;;;;28.90;15.75;;;15.30;99.90;;;;;;5051185;28;20123;-84
2021/08/21 01:24:37;;;;;;;27.17;16.20;;;15.30;99.90;;;;;;5050032;28;20037;-85
2021/08/21 01:27:04;;;;;;;21.30;13.55;;;15.30;99.90;;;;;;5052523;28;20326;-84
2021/08/21 01:29:29;;;;;;;27.25;13.25;;;15.20;99.90;;;;;;5050269;28;20056;-89
2021/08/21 01:31:55;;;;;;;22.08;13.52;;;15.20;99.90;;;;;;5050355;28;20454;-84
2021/08/21 01:34:21;;;;;;;24.95;12.98;;;15.20;99.90;;;;;;5048898;28;20447;-85
2021/08/21 01:36:51;;;;;;;18.13;12.43;;;15.20;99.90;;;;;;5049364;28;20045;-84
2021/08/21 01:39:18;;;;;;;26.92;15.35;;;15.20;99.90;;;;;;5032949;28;20044;-84
2021/08/21 01:41:45;;;;;;;22.38;14.10;;;15.20;99.90;;;;;;5049518;28;20053;-84
2021/08/21 01:44:15;;;;;;;30.80;13.57;;;15.20;99.90;;;;;;5049691;28;20153;-84
2021/08/21 01:46:42;;;;;;;28.17;14.73;;;15.20;99.90;;;;;;5046754;28;20129;-84
2021/08/21 01:49:11;;;;;;;27.75;15.20;;;15.20;99.90;;;;;;5065573;28;20576;-83
2021/08/21 01:51:45;;;;;;;22.40;14.77;;;15.20;99.90;;;;;;5031671;28;20053;-84
2021/08/21 01:54:13;;;;;;;29.38;15.43;;;15.10;99.90;;;;;;5064595;28;20047;-84
2021/08/21 01:56:54;;;;;;;18.95;12.55;;;15.10;99.90;;;;;;5051680;28;20109;-84
2021/08/21 01:59:34;;;;;;;22.00;12.55;;;15.10;99.90;;;;;;5055642;28;20064;-84
2021/08/21 02:02:02;;;;;;;21.52;12.23;;;15.10;99.90;;;;;;5048532;28;20109;-85
2021/08/21 02:04:28;;;;;;;27.75;15.00;;;15.10;99.90;;;;;;5039016;28;20405;-84
2021/08/21 02:06:53;;;;;;;28.55;15.32;;;15.10;99.90;;;;;;5031445;28;20057;-84
2021/08/21 02:09:22;;;;;;;23.73;13.35;;;15.10;99.90;;;;;;5048782;28;20119;-84
2021/08/21 02:11:50;;;;;;;25.08;14.95;;;15.10;99.90;;;;;;5049760;28;20837;-84
2021/08/21 02:14:17;;;;;;;23.67;13.23;;;15.10;99.90;;;;;;5032251;28;20401;-84
2021/08/21 02:16:44;;;;;;;46.38;14.90;;;15.00;99.90;;;;;;5048671;28;20037;-84
2021/08/21 02:19:10;;;;;;;26.30;13.23;;;15.10;99.90;;;;;;5030997;28;20128;-84
2021/08/21 02:21:38;;;;;;;32.25;14.73;;;15.10;99.90;;;;;;5045122;28;20045;-87
2021/08/21 02:24:05;;;;;;;23.08;13.88;;;15.00;99.90;;;;;;5044511;28;20500;-85
2021/08/21 02:26:31;;;;;;;26.90;14.38;;;15.00;99.90;;;;;;5041156;28;20484;-85
2021/08/21 02:28:57;;;;;;;26.85;14.27;;;15.10;99.90;;;;;;5057526;28;20041;-84
2021/08/21 02:31:25;;;;;;;20.45;12.25;;;15.00;99.90;;;;;;5050489;28;20048;-85
2021/08/21 02:33:51;;;;;;;26.90;13.23;;;15.00;99.90;;;;;;5050393;28;20040;-85
2021/08/21 02:36:17;;;;;;;26.08;13.65;;;15.10;99.90;;;;;;5049560;28;20052;-84
2021/08/21 02:38:45;;;;;;;22.55;13.45;;;15.00;99.90;;;;;;5031530;28;20114;-83
2021/08/21 02:41:12;;;;;;;19.40;12.50;;;15.00;99.90;;;;;;5049728;28;20453;-84
2021/08/21 02:43:38;;;;;;;30.80;13.40;;;15.10;99.90;;;;;;5048141;28;20041;-88
2021/08/21 02:46:03;;;;;;;25.67;13.27;;;15.00;99.90;;;;;;5031464;28;20036;-84
2021/08/21 02:48:29;;;;;;;25.02;13.98;;;15.00;99.90;;;;;;5049711;28;20057;-85
2021/08/21 02:50:56;;;;;;;22.92;13.02;;;15.00;99.90;;;;;;5064366;28;20372;-84
2021/08/21 02:53:22;;;;;;;29.13;15.68;;;15.00;99.90;;;;;;5049586;28;20470;-85
2021/08/21 02:55:48;;;;;;;22.98;14.02;;;15.00;99.90;;;;;;5048469;28;20041;-85
2021/08/21 02:58:14;;;;;;;30.60;14.95;;;15.00;99.90;;;;;;5029318;28;20180;-84
2021/08/21 03:00:41;;;;;;;29.52;14.55;;;15.00;99.90;;;;;;5064235;28;20153;-86
2021/08/21 03:03:08;;;;;;;22.77;12.45;;;15.00;99.90;;;;;;5064500;28;20049;-83
2021/08/21 03:05:34;;;;;;;23.25;12.93;;;15.00;99.90;;;;;;5047886;28;20037;-84
2021/08/21 03:08:00;;;;;;;21.50;13.30;;;15.00;99.90;;;;;;5043148;28;20041;-84
2021/08/21 03:10:25;;;;;;;25.88;14.90;;;15.00;99.90;;;;;;5028047;28;20052;-84
2021/08/21 03:12:51;;;;;;;28.40;15.30;;;15.00;99.90;;;;;;5030726;28;20040;-84
2021/08/21 03:15:17;;;;;;;25.40;14.55;;;15.00;99.90;;;;;;5049419;28;20496;-84
2021/08/21 03:17:43;;;;;;;21.92;12.60;;;15.00;99.90;;;;;;5048984;28;20052;-84
2021/08/21 03:20:09;;;;;;;18.95;12.30;;;15.00;99.90;;;;;;5067723;28;20045;-85
2021/08/21 03:22:35;;;;;;;22.60;13.50;;;15.00;99.90;;;;;;5052645;28;20041;-84
2021/08/21 03:25:02;;;;;;;19.50;13.18;;;15.00;99.90;;;;;;5060070;28;20228;-84
2021/08/21 03:27:27;;;;;;;23.10;14.07;;;15.00;99.90;;;;;;5062622;28;20497;-84
2021/08/21 03:29:54;;;;;;;19.27;12.43;;;15.00;99.90;;;;;;5034795;28;20044;-84
2021/08/21 03:32:20;;;;;;;24.13;13.85;;;15.00;99.90;;;;;;5051765;28;20041;-86
2021/08/21 03:34:46;;;;;;;23.65;13.88;;;15.10;99.90;;;;;;5050684;28;20045;-85
2021/08/21 03:37:12;;;;;;;28.95;15.55;;;15.00;99.90;;;;;;5065998;28;20041;-85
2021/08/21 03:39:39;;;;;;;25.88;14.02;;;15.00;99.90;;;;;;5053035;28;20047;-86
2021/08/21 03:42:06;;;;;;;21.40;13.23;;;15.00;99.90;;;;;;5034430;28;20127;-86
2021/08/21 03:44:32;;;;;;;22.20;12.70;;;15.00;99.90;;;;;;5052285;28;20052;-85
2021/08/21 03:46:57;;;;;;;24.67;13.88;;;15.00;99.90;;;;;;5033874;28;20049;-85
2021/08/21 03:49:23;;;;;;;19.38;13.05;;;15.00;99.90;;;;;;5034784;28;20037;-84
2021/08/21 03:51:50;;;;;;;19.75;13.30;;;15.00;99.90;;;;;;5050978;28;20072;-85
2021/08/21 03:54:16;;;;;;;22.35;13.52;;;15.00;99.90;;;;;;5052334;28;20087;-84
2021/08/21 03:56:41;;;;;;;20.45;12.10;;;15.00;99.90;;;;;;5060263;28;20037;-89
2021/08/21 03:59:08;;;;;;;22.70;13.88;;;15.00;99.90;;;;;;5067461;28;20484;-84
2021/08/21 04:01:34;;;;;;;24.17;13.27;;;15.00;99.90;;;;;;5052096;28;20567;-84
2021/08/21 04:04:00;;;;;;;25.83;14.05;;;15.10;99.90;;;;;;5034037;28;20108;-84
2021/08/21 04:06:26;;;;;;;20.08;12.98;;;15.10;99.90;;;;;;5051954;28;20128;-85
2021/08/21 04:08:51;;;;;;;18.50;12.85;;;15.00;99.90;;;;;;5066237;28;20048;-84
2021/08/21 04:11:17;;;;;;;21.10;12.70;;;15.10;99.90;;;;;;5038910;28;20032;-86
2021/08/21 04:13:43;;;;;;;23.60;14.25;;;15.10;99.90;;;;;;5067456;28;20049;-88
2021/08/21 04:16:09;;;;;;;24.90;14.15;;;15.10;99.90;;;;;;5051789;28;20037;-85
2021/08/21 04:18:35;;;;;;;24.38;14.45;;;15.10;99.90;;;;;;5035234;28;20037;-85
2021/08/21 04:21:02;;;;;;;18.63;12.45;;;15.10;99.90;;;;;;5032214;28;20048;-86
2021/08/21 04:23:27;;;;;;;25.83;13.13;;;15.10;99.90;;;;;;5050199;28;20045;-86
2021/08/21 04:25:59;;;;;;;24.50;13.55;;;15.10;99.90;;;;;;5054870;28;20040;-88
2021/08/21 04:28:29;;;;;;;24.38;13.50;;;15.10;99.90;;;;;;5050369;28;20036;-88
2021/08/21 04:30:56;;;;;;;20.75;13.52;;;15.10;99.90;;;;;;5064690;28;20488;-85
2021/08/21 04:33:23;;;;;;;22.83;13.13;;;15.10;99.90;;;;;;5045014;28;20438;-86
2021/08/21 04:35:49;;;;;;;37.58;13.50;;;15.10;99.90;;;;;;5034669;28;20048;-89
2021/08/21 04:38:16;;;;;;;20.60;11.82;;;15.10;99.90;;;;;;5034170;28;20086;-86
2021/08/21 04:40:44;;;;;;;21.17;13.13;;;15.20;99.90;;;;;;5067343;28;20049;-85
2021/08/21 04:43:11;;;;;;;26.25;13.65;;;15.10;99.90;;;;;;5050891;28;20060;-85
2021/08/21 04:45:37;;;;;;;20.55;12.70;;;15.10;99.90;;;;;;5050583;28;20048;-85
2021/08/21 04:48:03;;;;;;;23.08;12.85;;;15.10;99.90;;;;;;5033141;28;20120;-85
2021/08/21 04:50:29;;;;;;;18.20;12.52;;;15.10;99.90;;;;;;5034184;28;20056;-86
2021/08/21 04:52:55;;;;;;;22.45;14.02;;;15.10;99.90;;;;;;5051227;28;20049;-85
2021/08/21 04:55:21;;;;;;;24.45;14.68;;;15.10;99.90;;;;;;5052751;28;20095;-86
2021/08/21 04:57:49;;;;;;;23.85;14.23;;;15.10;99.90;;;;;;5054356;28;20056;-87
2021/08/21 05:00:15;;;;;;;24.40;14.30;;;15.10;99.90;;;;;;5050813;28;20397;-85
2021/08/21 05:02:40;;;;;;;22.80;13.98;;;15.10;99.90;;;;;;5051302;28;20035;-86
2021/08/21 05:05:07;;;;;;;18.92;12.60;;;15.10;99.90;;;;;;5064835;28;20032;-85
2021/08/21 05:07:32;;;;;;;22.33;12.80;;;15.10;99.90;;;;;;5032715;28;20051;-87
2021/08/21 05:09:58;;;;;;;26.92;15.45;;;15.10;99.90;;;;;;5032546;28;20045;-86
2021/08/21 05:12:25;;;;;;;23.92;13.70;;;15.10;99.90;;;;;;5033532;28;20073;-86
2021/08/21 05:14:50;;;;;;;31.75;14.35;;;15.10;99.90;;;;;;5021473;28;20057;-90
2021/08/21 05:17:16;;;;;;;26.23;15.65;;;15.10;99.90;;;;;;5030487;28;20128;-86
2021/08/21 05:19:49;;;;;;;23.38;14.82;;;15.20;99.90;;;;;;5061513;28;20057;-87
2021/08/21 05:22:39;;;;;;;23.42;14.70;;;15.20;99.90;;;;;;5030863;28;20065;-86
2021/08/21 05:25:05;;;;;;;26.35;14.38;;;15.20;99.90;;;;;;5051250;28;20564;-88
2021/08/21 05:27:32;;;;;;;23.90;15.30;;;15.30;99.90;;;;;;5034165;28;20044;-86
2021/08/21 05:29:59;;;;;;;23.15;13.63;;;15.30;99.90;;;;;;5049691;28;20052;-86
2021/08/21 05:32:25;;;;;;;24.00;14.20;;;15.30;99.90;;;;;;5033819;28;20064;-86
2021/08/21 05:34:51;;;;;;;22.60;14.52;;;15.30;99.90;;;;;;5031412;28;20072;-88
2021/08/21 05:37:17;;;;;;;22.83;13.95;;;15.30;99.90;;;;;;5030136;28;20053;-86
2021/08/21 05:39:42;;;;;;;28.02;15.45;;;15.40;99.90;;;;;;5063326;28;20115;-86
2021/08/21 05:42:08;;;;;;;26.83;14.95;;;15.40;99.90;;;;;;5065782;28;20077;-85
2021/08/21 05:44:34;;;;;;;22.25;12.93;;;15.40;99.90;;;;;;5052634;28;20083;-86
2021/08/21 05:47:00;;;;;;;29.67;15.95;;;15.40;99.90;;;;;;5033382;28;20044;-87
2021/08/21 05:49:26;;;;;;;21.05;13.82;;;15.50;99.90;;;;;;5038279;28;20064;-86
2021/08/21 05:51:51;;;;;;;30.95;15.85;;;15.50;99.90;;;;;;5048800;28;20056;-90
2021/08/21 05:54:17;;;;;;;20.45;13.07;;;15.60;99.90;;;;;;5055556;28;20494;-86
2021/08/21 05:56:43;;;;;;;27.83;16.50;;;15.60;99.90;;;;;;5047474;28;20044;-86
2021/08/21 05:59:09;;;;;;;22.98;14.65;;;15.60;99.90;;;;;;5040352;28;20545;-86
2021/08/21 06:01:38;;;;;;;23.17;13.35;;;15.60;99.90;;;;;;5060908;28;20501;-86
2021/08/21 06:04:05;;;;;;;21.52;14.02;;;15.70;99.90;;;;;;5064990;28;20090;-86
2021/08/21 06:06:30;;;;;;;24.45;15.55;;;15.70;99.90;;;;;;5049091;28;20047;-85
2021/08/21 06:08:56;;;;;;;24.40;15.13;;;15.80;99.90;;;;;;5031395;28;20049;-86
2021/08/21 06:11:22;;;;;;;23.38;14.98;;;15.70;99.90;;;;;;5042053;28;20046;-86
2021/08/21 06:13:47;;;;;;;27.38;16.42;;;15.80;99.90;;;;;;5046216;28;20046;-84
2021/08/21 06:16:13;;;;;;;22.38;15.93;;;15.80;99.90;;;;;;5032523;28;20102;-85
2021/08/21 06:18:39;;;;;;;25.10;16.25;;;15.90;99.90;;;;;;5016430;28;20051;-85
2021/08/21 06:21:05;;;;;;;24.52;15.95;;;15.90;99.90;;;;;;5032462;28;20045;-86
2021/08/21 06:23:31;;;;;;;24.70;15.57;;;16.00;99.90;;;;;;5051514;28;20052;-86
2021/08/21 06:25:57;;;;;;;24.08;16.30;;;16.00;99.90;;;;;;5032939;28;20069;-90
2021/08/21 06:28:23;;;;;;;25.38;15.90;;;16.10;99.90;;;;;;5046520;28;20069;-86
2021/08/21 06:30:49;;;;;;;23.65;14.38;;;16.10;99.90;;;;;;5059712;28;20103;-86
2021/08/21 06:33:15;;;;;;;27.40;14.93;;;16.10;99.90;;;;;;5065898;28;20033;-86
2021/08/21 06:35:41;;;;;;;24.70;14.32;;;16.20;99.90;;;;;;5051013;28;20055;-86
2021/08/21 06:38:07;;;;;;;21.88;14.70;;;16.20;99.90;;;;;;5048807;28;20500;-85
2021/08/21 06:40:32;;;;;;;26.58;15.52;;;16.20;99.90;;;;;;5056038;28;20464;-88
2021/08/21 06:42:58;;;;;;;23.63;15.95;;;16.30;99.90;;;;;;5060034;28;20052;-89
2021/08/21 06:45:24;;;;;;;24.02;15.45;;;16.30;99.90;;;;;;5057900;28;20038;-85
2021/08/21 06:47:50;;;;;;;26.92;14.10;;;16.30;99.90;;;;;;5048586;28;20089;-85
2021/08/21 06:50:16;;;;;;;21.75;14.52;;;16.40;99.90;;;;;;5031110;28;20025;-85
2021/08/21 06:52:41;;;;;;;23.77;15.43;;;16.40;99.90;;;;;;5033913;28;20418;-86
2021/08/21 06:55:08;;;;;;;32.72;15.00;;;16.40;99.90;;;;;;5030164;28;20413;-86
2021/08/21 06:57:33;;;;;;;31.42;16.00;;;16.60;99.90;;;;;;5039784;28;20193;-85
2021/08/21 07:00:00;;;;;;;29.13;15.98;;;16.60;99.90;;;;;;5065109;28;20041;-86
2021/08/21 07:02:26;;;;;;;24.17;15.35;;;16.70;99.90;;;;;;5052028;28;20084;-85
2021/08/21 07:04:52;;;;;;;23.20;15.77;;;16.70;99.90;;;;;;5040459;28;20041;-86
2021/08/21 07:07:18;;;;;;;28.63;15.90;;;16.70;99.90;;;;;;5034645;28;20043;-85
2021/08/21 07:09:44;;;;;;;29.77;15.48;;;16.70;99.90;;;;;;5051503;28;20041;-85
2021/08/21 07:12:10;;;;;;;28.30;16.65;;;16.70;99.90;;;;;;5051047;28;20050;-85
2021/08/21 07:14:36;;;;;;;21.92;15.93;;;16.80;99.90;;;;;;5037717;28;20347;-86
2021/08/21 07:17:02;;;;;;;25.70;15.07;;;16.90;99.90;;;;;;5066939;28;20145;-85
2021/08/21 07:19:28;;;;;;;24.92;15.10;;;17.00;99.90;;;;;;5052074;28;20037;-86
2021/08/21 07:21:54;;;;;;;27.35;16.80;;;17.10;99.90;;;;;;5029895;28;20049;-86
2021/08/21 07:24:20;;;;;;;21.77;14.68;;;17.20;99.90;;;;;;5051704;28;20519;-87
2021/08/21 07:26:47;;;;;;;25.67;14.57;;;17.30;99.90;;;;;;5044376;28;20049;-85
2021/08/21 07:29:14;;;;;;;20.92;14.90;;;17.30;99.90;;;;;;5041066;28;20483;-86
2021/08/21 07:31:39;;;;;;;22.30;16.02;;;17.40;99.90;;;;;;5036162;28;20490;-85
2021/08/21 07:34:06;;;;;;;26.13;16.10;;;17.50;99.90;;;;;;5067987;28;20405;-83
2021/08/21 07:36:32;;;;;;;21.23;15.27;;;17.50;99.90;;;;;;5036170;28;20054;-85
2021/08/21 07:38:57;;;;;;;26.58;15.48;;;17.60;99.90;;;;;;5051871;28;20061;-85
2021/08/21 07:41:23;;;;;;;25.38;15.40;;;17.60;99.90;;;;;;5035204;28;20080;-85
2021/08/21 07:43:49;;;;;;;21.15;14.93;;;17.60;99.90;;;;;;5046687;28;20461;-85
2021/08/21 07:46:15;;;;;;;23.00;14.82;;;17.70;99.90;;;;;;5031963;28;20050;-85
2021/08/21 07:48:40;;;;;;;23.67;15.55;;;17.80;99.90;;;;;;5051476;28;20101;-86
2021/08/21 07:51:07;;;;;;;21.17;15.82;;;17.90;99.90;;;;;;5041721;28;20406;-85
2021/08/21 07:53:33;;;;;;;21.48;14.80;;;17.90;99.90;;;;;;5050086;28;20072;-85
2021/08/21 07:56:00;;;;;;;19.90;15.57;;;18.00;99.90;;;;;;5073298;28;20044;-85
2021/08/21 07:58:26;;;;;;;24.17;16.65;;;18.00;99.90;;;;;;5057679;28;20049;-85
2021/08/21 08:00:51;;;;;;;23.20;17.60;;;18.00;99.90;;;;;;5054434;28;20041;-83
2021/08/21 08:03:17;;;;;;;28.67;19.88;;;18.00;99.90;;;;;;5034204;28;20042;-85
2021/08/21 08:05:44;;;;;;;27.42;17.67;;;18.10;99.90;;;;;;5069681;28;20380;-85
2021/08/21 08:08:10;;;;;;;27.27;17.92;;;18.20;99.90;;;;;;5070795;28;20044;-87
2021/08/21 08:10:36;;;;;;;22.20;17.85;;;18.30;99.90;;;;;;5055280;28;20052;-85
2021/08/21 08:13:08;;;;;;;26.70;18.05;;;18.40;99.90;;;;;;5055415;28;20095;-84
2021/08/21 08:15:34;;;;;;;25.60;15.98;;;18.40;99.90;;;;;;5051858;28;20047;-85
2021/08/21 08:18:04;;;;;;;24.38;16.58;;;18.50;99.90;;;;;;5040624;28;20382;-86
2021/08/21 08:20:30;;;;;;;29.65;18.42;;;18.70;99.90;;;;;;5037239;28;20072;-84
2021/08/21 08:22:56;;;;;;;21.65;16.63;;;18.90;99.90;;;;;;5053125;28;20056;-84
2021/08/21 08:25:23;;;;;;;24.88;16.33;;;19.10;99.90;;;;;;5049935;28;20048;-84
2021/08/21 08:27:49;;;;;;;20.70;16.48;;;19.30;99.90;;;;;;5069852;28;20052;-85
2021/08/21 08:30:16;;;;;;;23.15;17.13;;;19.40;99.90;;;;;;5049020;28;20047;-84
2021/08/21 08:32:43;;;;;;;26.05;16.30;;;19.50;99.90;;;;;;5059399;28;20049;-85
2021/08/21 08:35:10;;;;;;;20.80;16.95;;;19.70;99.90;;;;;;5049304;28;20455;-86
2021/08/21 08:37:36;;;;;;;21.83;17.23;;;19.80;99.90;;;;;;5064121;28;20033;-85
2021/08/21 08:40:04;;;;;;;29.13;19.02;;;19.80;99.90;;;;;;5032340;28;20063;-85
2021/08/21 08:42:31;;;;;;;21.42;16.48;;;19.90;99.90;;;;;;5015360;28;20937;-85
2021/08/21 08:44:57;;;;;;;26.00;18.50;;;20.10;99.90;;;;;;5049903;28;20063;-87
2021/08/21 08:47:22;;;;;;;24.77;17.70;;;20.20;99.90;;;;;;5049006;28;20493;-85
2021/08/21 08:49:50;;;;;;;25.15;18.25;;;20.20;99.90;;;;;;5065428;28;20051;-85
2021/08/21 08:52:17;;;;;;;25.77;17.67;;;20.30;99.90;;;;;;5016656;28;20563;-86
2021/08/21 08:54:44;;;;;;;25.52;17.95;;;20.50;99.90;;;;;;5033658;28;20046;-85
2021/08/21 08:57:16;;;;;;;21.95;15.55;;;20.60;99.90;;;;;;5067457;28;20052;-86
2021/08/21 08:59:43;;;;;;;25.90;17.25;;;20.80;99.90;;;;;;5048210;28;20044;-85
2021/08/21 09:02:09;;;;;;;20.05;16.08;;;20.90;99.90;;;;;;5014664;28;20056;-87
2021/08/21 09:04:35;;;;;;;21.98;16.55;;;21.00;99.90;;;;;;5021072;28;20087;-86
2021/08/21 09:07:01;;;;;;;22.15;16.50;;;21.10;99.90;;;;;;5049591;28;20049;-86
2021/08/21 09:09:27;;;;;;;30.42;16.63;;;21.10;99.90;;;;;;5043395;28;20539;-85
2021/08/21 09:11:54;;;;;;;19.20;14.45;;;21.20;99.90;;;;;;5041640;28;20056;-86
2021/08/21 09:14:30;;;;;;;22.58;15.80;;;21.40;99.90;;;;;;5063560;28;20035;-85
2021/08/21 09:17:20;;;;;;;23.10;17.45;;;21.50;99.90;;;;;;5030577;28;20147;-85
2021/08/21 09:19:48;;;;;;;22.30;16.50;;;21.50;99.90;;;;;;5049005;28;20408;-85
2021/08/21 09:22:14;;;;;;;19.80;15.48;;;21.50;99.90;;;;;;5030769;28;20045;-87
2021/08/21 09:24:42;;;;;;;21.52;16.42;;;21.50;99.90;;;;;;5028330;28;20048;-85
2021/08/21 09:27:25;;;;;;;22.70;16.45;;;21.50;99.90;;;;;;5033808;28;20106;-85
2021/08/21 09:30:13;;;;;;;20.52;15.85;;;21.60;99.90;;;;;;5049065;28;20447;-86
2021/08/21 09:32:42;;;;;;;;;;;21.70;99.90;;;;;;5050057;28;20047;-85
2021/08/21 09:35:10;;;;;;;20.48;15.63;;;21.90;99.90;;;;;;5040581;28;20003;-85
2021/08/21 09:37:55;;;;;;;22.42;16.58;;;22.00;99.90;;;;;;5049107;28;20037;-85
2021/08/21 09:40:21;;;;;;;22.05;15.88;;;22.10;99.90;;;;;;5015981;28;20393;-86
2021/08/21 09:42:47;;;;;;;21.77;16.10;;;22.30;99.90;;;;;;5043201;28;20045;-85
2021/08/21 09:45:13;;;;;;;26.33;17.75;;;22.40;99.90;;;;;;5018622;28;20048;-87
2021/08/21 09:47:39;;;;;;;26.98;18.75;;;22.40;99.90;;;;;;5055990;28;20444;-86
2021/08/21 09:50:18;;;;;;;25.73;18.08;;;22.30;99.90;;;;;;5014604;28;20045;-87
2021/08/21 09:52:48;;;;;;;24.15;17.45;;;22.40;99.90;;;;;;5031440;28;20068;-86
2021/08/21 09:55:19;;;;;;;23.08;16.20;;;22.70;99.90;;;;;;5064430;28;20451;-87
2021/08/21 09:58:01;;;;;;;26.70;17.83;;;22.70;99.90;;;;;;5035137;28;20436;-86
2021/08/21 10:00:30;;;;;;;22.27;17.30;;;22.90;99.90;;;;;;5046402;28;20043;-86
2021/08/21 10:02:56;;;;;;;22.83;17.27;;;23.00;99.90;;;;;;5048365;28;20037;-85
2021/08/21 10:05:23;;;;;;;23.13;18.30;;;23.10;99.90;;;;;;5048072;28;20037;-85
2021/08/21 10:08:13;;;;;;;26.33;19.88;;;23.10;99.90;;;;;;5036434;28;20455;-86
2021/08/21 10:10:49;;;;;;;25.85;19.17;;;23.30;99.90;;;;;;5032184;28;20765;-85
2021/08/21 10:13:24;;;;;;;26.98;20.52;;;23.30;99.90;;;;;;5049067;28;20041;-87
2021/08/21 10:15:51;;;;;;;20.38;17.05;;;23.30;99.90;;;;;;5030948;28;20472;-86
2021/08/21 10:18:22;;;;;;;25.08;18.95;;;23.30;99.90;;;;;;5063372;28;20052;-87
2021/08/21 10:20:48;;;;;;;23.33;18.35;;;23.20;99.90;;;;;;5048719;28;20037;-85
2021/08/21 10:23:18;;;;;;;30.30;19.85;;;23.30;99.90;;;;;;5047071;28;20392;-86
2021/08/21 10:26:01;;;;;;;26.48;20.52;;;23.30;99.90;;;;;;5048262;28;20041;-86
2021/08/21 10:28:34;;;;;;;27.08;19.80;;;23.20;99.90;;;;;;5051829;28;20041;-85
2021/08/21 10:31:00;;;;;;;26.80;19.55;;;23.00;99.90;;;;;;5052534;28;20041;-85
2021/08/21 10:33:28;;;;;;;27.10;18.67;;;22.90;99.90;;;;;;5051092;28;20049;-86
2021/08/21 10:35:56;;;;;;;29.20;19.90;;;22.80;99.90;;;;;;5047818;28;20041;-86
2021/08/21 10:38:39;;;;;;;26.65;20.80;;;22.90;99.90;;;;;;5047098;28;20047;-88
2021/08/21 10:41:11;;;;;;;26.02;18.23;;;22.70;99.90;;;;;;5043418;28;20052;-87
2021/08/21 10:43:57;;;;;;;29.55;18.73;;;22.50;99.90;;;;;;5064403;28;20237;-88
2021/08/21 10:46:29;;;;;;;27.65;17.10;;;22.40;99.90;;;;;;5048594;28;20044;-86
2021/08/21 10:48:56;;;;;;;21.83;18.17;;;22.30;99.90;;;;;;5064579;28;20505;-86
2021/08/21 10:51:40;;;;;;;25.20;18.55;;;22.20;99.90;;;;;;5063387;28;20041;-87
2021/08/21 10:54:24;;;;;;;24.05;18.13;;;22.20;99.90;;;;;;5047504;28;20052;-85
2021/08/21 10:56:51;;;;;;;26.75;18.52;;;22.00;99.90;;;;;;5069668;28;20051;-86
2021/08/21 10:59:42;;;;;;;29.48;18.60;;;22.10;99.90;;;;;;5045569;28;20095;-85
2021/08/21 11:02:37;;;;;;;24.77;18.27;;;22.10;99.90;;;;;;5066365;28;20040;-86
2021/08/21 11:05:04;;;;;;;33.35;17.05;;;22.10;99.90;;;;;;5049051;28;20055;-86
2021/08/21 11:07:30;;;;;;;23.15;19.05;;;22.20;99.90;;;;;;5050761;28;20516;-85
2021/08/21 11:10:15;;;;;;;24.85;18.40;;;22.30;99.90;;;;;;5033701;28;20041;-85
2021/08/21 11:12:43;;;;;;;21.30;16.40;;;22.20;99.90;;;;;;5052602;28;20048;-86
2021/08/21 11:15:22;;;;;;;21.40;17.30;;;22.10;99.90;;;;;;5049924;28;20060;-86
2021/08/21 11:17:49;;;;;;;18.15;12.90;;;22.20;99.90;;;;;;5049438;28;20033;-85
2021/08/21 11:20:28;;;;;;;20.55;14.27;;;22.30;99.90;;;;;;5023919;28;20418;-85
2021/08/21 11:23:09;;;;;;;17.65;14.10;;;22.30;99.90;;;;;;5030480;28;20124;-85
2021/08/21 11:25:37;;;;;;;17.42;13.55;;;22.30;99.90;;;;;;5046047;28;20112;-86
2021/08/21 11:28:13;;;;;;;20.92;14.30;;;22.30;99.90;;;;;;5063819;28;20033;-85
2021/08/21 11:30:39;;;;;;;18.00;13.63;;;22.30;99.90;;;;;;5051055;28;20370;-85
2021/08/21 11:33:08;;;;;;;18.92;13.68;;;22.30;99.90;;;;;;5050599;28;20515;-86
2021/08/21 11:35:51;;;;;;;17.73;12.77;;;22.30;99.90;;;;;;5033366;28;20548;-85
2021/08/21 11:38:32;;;;;;;19.42;13.93;;;22.30;99.90;;;;;;5066161;28;20048;-85
2021/08/21 11:41:01;;;;;;;18.83;13.45;;;22.30;99.90;;;;;;5050627;28;20037;-85
2021/08/21 11:43:29;;;;;;;15.95;11.93;;;22.30;99.90;;;;;;5050549;28;20056;-87
2021/08/21 11:45:56;;;;;;;20.00;13.30;;;22.20;99.90;;;;;;5051881;28;20045;-85
2021/08/21 11:48:28;;;;;;;16.48;12.15;;;22.20;99.90;;;;;;5049464;28;20064;-85
2021/08/21 11:50:54;;;;;;;14.38;11.75;;;22.20;99.90;;;;;;5033020;28;20044;-85
2021/08/21 11:53:25;;;;;;;14.80;11.27;;;22.20;99.90;;;;;;5049308;28;20061;-85
2021/08/21 11:55:55;;;;;;;17.45;11.70;;;22.30;99.90;;;;;;5032927;28;20464;-86
2021/08/21 11:58:37;;;;;;;;;;;22.20;99.90;;;;;;5068052;28;20044;-85
2021/08/21 12:01:11;;;;;;;14.90;10.63;;;22.40;99.90;;;;;;5051745;28;19927;-86
2021/08/21 12:06:23;;;;;;;16.17;10.52;;;23.00;99.90;;;;;;5065189;28;20088;-85
2021/08/21 12:08:49;;;;;;;;;;;23.10;99.90;;;;;;5049825;28;20041;-86
2021/08/21 12:11:15;;;;;;;13.98;11.02;;;23.20;99.90;;;;;;5038827;28;20439;-85
2021/08/21 12:13:41;;;;;;;17.83;12.80;;;23.30;99.90;;;;;;5065618;28;20408;-86
2021/08/21 12:16:12;;;;;;;18.08;13.60;;;23.30;99.90;;;;;;5066285;28;20080;-86
2021/08/21 12:18:41;;;;;;;21.67;15.65;;;23.30;99.90;;;;;;5043094;28;20109;-85
2021/08/21 12:21:09;;;;;;;19.23;13.57;;;23.10;99.90;;;;;;5029639;28;20045;-86
2021/08/21 12:23:36;;;;;;;20.17;13.27;;;23.00;99.90;;;;;;5029219;28;20037;-85
2021/08/21 12:26:04;;;;;;;18.05;11.60;;;23.10;99.90;;;;;;5051369;28;20040;-86
2021/08/21 12:28:56;;;;;;;18.00;11.52;;;23.30;99.90;;;;;;5044706;28;20045;-86
2021/08/21 12:31:38;;;;;;;16.25;11.38;;;23.70;99.90;;;;;;5040837;28;20107;-86
2021/08/21 12:34:06;;;;;;;13.60;9.98;;;23.50;99.90;;;;;;5064749;28;20044;-85
2021/08/21 12:36:40;;;;;;;14.93;11.00;;;23.50;99.90;;;;;;5064809;28;20041;-86